VTSP/HKT METAR and TAF weather

Enter ICAO airport designator
Station Type Date Time Source
VTSP METAR 2021/07/29 03:30 UTC NOAA

VTSP 290330Z 25012KT 9999 -RA FEW018TCU BKN020 29/25 Q1010 NOSIG


Station Type Date Time Source
VTSP Decoded METAR 2021/07/29 03:30 UTC NOAA

Phuket Airport, Thailand (VTSP) 08-07N 098-19E 10M
Jul 28, 2021 - 11:30 PM EDT / 2021.07.29 0330 UTC
Wind: from the WSW (250 degrees) at 14 MPH (12 KT):0
Visibility: greater than 7 mile(s):0
Sky conditions: mostly cloudy
Weather: light rain; Towering cumulus clouds observed
Temperature: 84 F (29 C)
Dew Point: 77 F (25 C)
Relative Humidity: 79%
Pressure (altimeter): 29.83 in. Hg (1010 hPa)
ob: VTSP 290330Z 25012KT 9999 -RA FEW018TCU BKN020 29/25 Q1010 NOSIG
cycle: 3

Station Type Date Time Source
VTSP TAF 2021/07/28 18:36 UTC NOAA

TAF VTSP 281700Z 2818/2924 26012KT 9999 SCT020
TEMPO 2820/2902 26020G35KT 3000 TSRA FEW016CB SCT020 BKN100
TEMPO 2912/2918 26020G35KT 3000 TSRA FEW016CB SCT020 BKN100

Example: see airport list